MMCS

Abraham González International Airport

Ciudad Juárez, Mexico
TAF MMCS 210404Z 2106/2206 12005KT P6SM SCT070 SCT250 FM211600 12010KT P6SM SCT100 FM220200 13005KT P6SM SCT070 BKN250
Issued Valid From Valid To
Jul-21 @ 04:04 UTC
(6 hours ago)
Jul-21 @ 06:00 UTC
(4 hours ago)
Jul-22 @ 06:00 UTC
(in 20 hours)
Jul-21 @ 06:00 to Jul-21 @ 16:00
TAF MMCS 210404Z 2106/2206 12005KT P6SM SCT070 SCT250
Wind Visibility Clouds
120° at 5 knots Greater than 6 miles
  • Scattered at 7,000' AGL
  • Scattered at 25,000' AGL
From Jul-21 @ 16:00 to Jul-22 @ 02:00
FM211600 12010KT P6SM SCT100
Wind Visibility Clouds
120° at 10 knots Greater than 6 miles
  • Scattered at 10,000' AGL
From Jul-22 @ 02:00 to Jul-22 @ 06:00
FM220200 13005KT P6SM SCT070 BKN250
Wind Visibility Clouds
130° at 5 knots Greater than 6 miles
  • Scattered at 7,000' AGL
  • Broken at 25,000' AGL
TAF MMCS 210404Z 2106/2206 12005KT P6SM SCT070 SCT250 FM211600 12010KT P6SM SCT100 FM220200 13005KT P6SM SCT070 BKN250
Issued Jul-21 @ 04:04 UTC
(6 hours ago)
Valid From Jul-21 @ 06:00 UTC
(4 hours ago)
Valid To Jul-22 @ 06:00 UTC
(in 20 hours)
Jul-21 @ 06:00 - Jul-21 @ 16:00
Wind Visibility
120° at 5 knots Greater than 6 miles
Clouds
  • Scattered at 7,000' AGL
  • Scattered at 25,000' AGL
From Jul-21 @ 16:00 - Jul-22 @ 02:00
Wind Visibility
120° at 10 knots Greater than 6 miles
Clouds
  • Scattered at 10,000' AGL
From Jul-22 @ 02:00 - Jul-22 @ 06:00
Wind Visibility
130° at 5 knots Greater than 6 miles
Clouds
  • Scattered at 7,000' AGL
  • Broken at 25,000' AGL